sensor_id;sensor_type;location;lat;lon;timestamp;P1;durP1;ratioP1;P2;durP2;ratioP2
14394;SDS011;7282;49.204;10.652;2023-02-01T00:01:48;17.47;;;12.67;;
14394;SDS011;7282;49.204;10.652;2023-02-01T00:04:15;20.10;;;12.93;;
14394;SDS011;7282;49.204;10.652;2023-02-01T00:06:41;17.63;;;12.63;;
14394;SDS011;7282;49.204;10.652;2023-02-01T00:09:08;17.17;;;12.63;;
14394;SDS011;7282;49.204;10.652;2023-02-01T00:11:35;17.43;;;12.70;;
14394;SDS011;7282;49.204;10.652;2023-02-01T00:14:02;16.80;;;12.00;;
14394;SDS011;7282;49.204;10.652;2023-02-01T00:16:29;15.10;;;11.40;;
14394;SDS011;7282;49.204;10.652;2023-02-01T00:18:57;17.80;;;12.30;;
14394;SDS011;7282;49.204;10.652;2023-02-01T00:21:24;16.13;;;11.93;;
14394;SDS011;7282;49.204;10.652;2023-02-01T00:23:50;15.37;;;11.30;;
14394;SDS011;7282;49.204;10.652;2023-02-01T00:26:18;15.23;;;11.73;;
14394;SDS011;7282;49.204;10.652;2023-02-01T00:28:45;14.77;;;12.07;;
14394;SDS011;7282;49.204;10.652;2023-02-01T00:31:12;13.73;;;10.93;;
14394;SDS011;7282;49.204;10.652;2023-02-01T00:33:39;13.70;;;10.73;;
14394;SDS011;7282;49.204;10.652;2023-02-01T00:36:06;15.13;;;11.20;;
14394;SDS011;7282;49.204;10.652;2023-02-01T00:38:33;13.60;;;11.20;;
14394;SDS011;7282;49.204;10.652;2023-02-01T00:41:10;13.03;;;10.47;;
14394;SDS011;7282;49.204;10.652;2023-02-01T00:43:32;10.57;;;9.00;;
14394;SDS011;7282;49.204;10.652;2023-02-01T00:45:59;11.57;;;10.33;;
14394;SDS011;7282;49.204;10.652;2023-02-01T00:48:26;12.37;;;9.23;;
14394;SDS011;7282;49.204;10.652;2023-02-01T00:50:53;11.60;;;9.20;;
14394;SDS011;7282;49.204;10.652;2023-02-01T00:53:20;9.70;;;8.40;;
14394;SDS011;7282;49.204;10.652;2023-02-01T00:55:47;9.50;;;8.27;;
14394;SDS011;7282;49.204;10.652;2023-02-01T00:58:14;11.03;;;8.30;;
14394;SDS011;7282;49.204;10.652;2023-02-01T01:00:41;10.27;;;7.57;;
14394;SDS011;7282;49.204;10.652;2023-02-01T01:03:08;10.87;;;8.40;;
14394;SDS011;7282;49.204;10.652;2023-02-01T01:05:46;10.17;;;8.63;;
14394;SDS011;7282;49.204;10.652;2023-02-01T01:08:14;9.23;;;8.10;;
14394;SDS011;7282;49.204;10.652;2023-02-01T01:10:41;10.77;;;8.60;;
14394;SDS011;7282;49.204;10.652;2023-02-01T01:13:08;8.97;;;8.07;;
14394;SDS011;7282;49.204;10.652;2023-02-01T01:15:36;12.90;;;8.13;;
14394;SDS011;7282;49.204;10.652;2023-02-01T01:18:03;9.73;;;7.53;;
14394;SDS011;7282;49.204;10.652;2023-02-01T01:20:30;8.17;;;6.87;;
14394;SDS011;7282;49.204;10.652;2023-02-01T01:22:57;9.67;;;7.10;;
14394;SDS011;7282;49.204;10.652;2023-02-01T01:25:24;8.00;;;7.20;;
14394;SDS011;7282;49.204;10.652;2023-02-01T01:27:50;10.33;;;7.63;;
14394;SDS011;7282;49.204;10.652;2023-02-01T01:30:17;8.07;;;7.27;;
14394;SDS011;7282;49.204;10.652;2023-02-01T01:32:44;9.73;;;7.30;;
14394;SDS011;7282;49.204;10.652;2023-02-01T01:35:11;7.67;;;6.90;;
14394;SDS011;7282;49.204;10.652;2023-02-01T01:37:37;7.87;;;7.07;;
14394;SDS011;7282;49.204;10.652;2023-02-01T01:40:04;8.53;;;7.10;;
14394;SDS011;7282;49.204;10.652;2023-02-01T01:42:42;7.80;;;6.50;;
14394;SDS011;7282;49.204;10.652;2023-02-01T01:45:05;7.70;;;6.80;;
14394;SDS011;7282;49.204;10.652;2023-02-01T01:47:33;8.27;;;7.33;;
14394;SDS011;7282;49.204;10.652;2023-02-01T01:50:00;7.57;;;6.70;;
14394;SDS011;7282;49.204;10.652;2023-02-01T01:52:26;7.63;;;6.80;;
14394;SDS011;7282;49.204;10.652;2023-02-01T01:54:53;7.47;;;6.63;;
14394;SDS011;7282;49.204;10.652;2023-02-01T01:57:24;8.07;;;7.27;;
14394;SDS011;7282;49.204;10.652;2023-02-01T01:59:59;8.50;;;7.57;;
14394;SDS011;7282;49.204;10.652;2023-02-01T02:02:23;8.63;;;7.33;;
14394;SDS011;7282;49.204;10.652;2023-02-01T02:04:50;8.67;;;7.77;;
14394;SDS011;7282;49.204;10.652;2023-02-01T02:07:18;8.77;;;7.43;;
14394;SDS011;7282;49.204;10.652;2023-02-01T02:09:45;8.73;;;7.53;;
14394;SDS011;7282;49.204;10.652;2023-02-01T02:12:12;10.47;;;7.53;;
14394;SDS011;7282;49.204;10.652;2023-02-01T02:14:39;9.00;;;8.00;;
14394;SDS011;7282;49.204;10.652;2023-02-01T02:17:07;8.93;;;8.03;;
14394;SDS011;7282;49.204;10.652;2023-02-01T02:19:48;9.70;;;7.87;;
14394;SDS011;7282;49.204;10.652;2023-02-01T02:32:45;9.73;;;8.33;;
14394;SDS011;7282;49.204;10.652;2023-02-01T02:35:12;9.83;;;7.87;;
14394;SDS011;7282;49.204;10.652;2023-02-01T02:37:38;10.20;;;8.87;;
14394;SDS011;7282;49.204;10.652;2023-02-01T02:40:08;10.23;;;8.07;;
14394;SDS011;7282;49.204;10.652;2023-02-01T02:45:28;11.63;;;8.63;;
14394;SDS011;7282;49.204;10.652;2023-02-01T02:48:18;8.50;;;7.60;;
14394;SDS011;7282;49.204;10.652;2023-02-01T02:50:47;9.30;;;7.53;;
14394;SDS011;7282;49.204;10.652;2023-02-01T02:53:34;8.30;;;7.40;;
14394;SDS011;7282;49.204;10.652;2023-02-01T02:56:20;11.13;;;8.17;;
14394;SDS011;7282;49.204;10.652;2023-02-01T02:59:06;10.83;;;7.60;;
14394;SDS011;7282;49.204;10.652;2023-02-01T03:01:51;9.53;;;7.57;;
14394;SDS011;7282;49.204;10.652;2023-02-01T03:04:36;7.93;;;7.13;;
14394;SDS011;7282;49.204;10.652;2023-02-01T03:07:45;10.33;;;7.67;;
14394;SDS011;7282;49.204;10.652;2023-02-01T03:09:44;8.37;;;7.23;;
14394;SDS011;7282;49.204;10.652;2023-02-01T03:12:12;8.43;;;7.57;;
14394;SDS011;7282;49.204;10.652;2023-02-01T03:15:00;8.43;;;7.03;;
14394;SDS011;7282;49.204;10.652;2023-02-01T03:17:27;10.43;;;7.67;;
14394;SDS011;7282;49.204;10.652;2023-02-01T03:19:54;9.73;;;7.73;;
14394;SDS011;7282;49.204;10.652;2023-02-01T03:22:23;8.50;;;7.63;;
14394;SDS011;7282;49.204;10.652;2023-02-01T03:24:54;8.27;;;7.37;;
14394;SDS011;7282;49.204;10.652;2023-02-01T03:27:22;8.40;;;7.47;;
14394;SDS011;7282;49.204;10.652;2023-02-01T03:29:51;8.50;;;7.60;;
14394;SDS011;7282;49.204;10.652;2023-02-01T03:32:18;8.97;;;8.07;;
14394;SDS011;7282;49.204;10.652;2023-02-01T03:34:45;11.13;;;7.17;;
14394;SDS011;7282;49.204;10.652;2023-02-01T03:37:12;9.43;;;8.17;;
14394;SDS011;7282;49.204;10.652;2023-02-01T03:42:12;9.83;;;7.57;;
14394;SDS011;7282;49.204;10.652;2023-02-01T03:44:43;8.47;;;7.47;;
14394;SDS011;7282;49.204;10.652;2023-02-01T03:47:10;8.73;;;7.83;;
14394;SDS011;7282;49.204;10.652;2023-02-01T03:49:38;8.80;;;7.50;;
14394;SDS011;7282;49.204;10.652;2023-02-01T03:52:06;9.13;;;8.07;;
14394;SDS011;7282;49.204;10.652;2023-02-01T03:54:34;9.50;;;8.47;;
14394;SDS011;7282;49.204;10.652;2023-02-01T03:57:04;9.63;;;8.00;;
14394;SDS011;7282;49.204;10.652;2023-02-01T03:59:31;9.87;;;7.50;;
14394;SDS011;7282;49.204;10.652;2023-02-01T04:01:58;8.53;;;7.63;;
14394;SDS011;7282;49.204;10.652;2023-02-01T04:04:24;10.07;;;8.17;;
14394;SDS011;7282;49.204;10.652;2023-02-01T04:06:51;9.17;;;8.23;;
14394;SDS011;7282;49.204;10.652;2023-02-01T04:09:18;10.37;;;9.17;;
14394;SDS011;7282;49.204;10.652;2023-02-01T04:11:45;9.70;;;8.70;;
14394;SDS011;7282;49.204;10.652;2023-02-01T04:14:11;9.30;;;7.97;;
14394;SDS011;7282;49.204;10.652;2023-02-01T04:16:38;9.07;;;8.17;;
14394;SDS011;7282;49.204;10.652;2023-02-01T04:19:05;9.20;;;7.83;;
14394;SDS011;7282;49.204;10.652;2023-02-01T04:21:31;8.97;;;8.00;;
14394;SDS011;7282;49.204;10.652;2023-02-01T04:23:58;9.47;;;7.63;;
14394;SDS011;7282;49.204;10.652;2023-02-01T04:26:25;8.83;;;7.93;;
14394;SDS011;7282;49.204;10.652;2023-02-01T04:28:52;7.87;;;7.07;;
14394;SDS011;7282;49.204;10.652;2023-02-01T04:31:19;9.67;;;8.00;;
14394;SDS011;7282;49.204;10.652;2023-02-01T04:33:51;8.17;;;6.90;;
14394;SDS011;7282;49.204;10.652;2023-02-01T04:36:19;7.50;;;6.77;;
14394;SDS011;7282;49.204;10.652;2023-02-01T04:38:51;8.33;;;7.47;;
14394;SDS011;7282;49.204;10.652;2023-02-01T04:41:18;6.57;;;5.90;;
14394;SDS011;7282;49.204;10.652;2023-02-01T04:43:46;6.77;;;6.07;;
14394;SDS011;7282;49.204;10.652;2023-02-01T04:46:13;7.23;;;6.53;;
14394;SDS011;7282;49.204;10.652;2023-02-01T04:48:39;6.67;;;6.07;;
14394;SDS011;7282;49.204;10.652;2023-02-01T04:51:06;6.63;;;5.87;;
14394;SDS011;7282;49.204;10.652;2023-02-01T04:53:33;6.93;;;5.93;;
14394;SDS011;7282;49.204;10.652;2023-02-01T04:56:00;6.60;;;5.97;;
14394;SDS011;7282;49.204;10.652;2023-02-01T04:58:26;8.97;;;6.50;;
14394;SDS011;7282;49.204;10.652;2023-02-01T05:00:53;6.60;;;5.90;;
14394;SDS011;7282;49.204;10.652;2023-02-01T05:03:20;5.83;;;5.33;;
14394;SDS011;7282;49.204;10.652;2023-02-01T05:05:47;6.70;;;6.07;;
14394;SDS011;7282;49.204;10.652;2023-02-01T05:08:14;6.47;;;5.87;;
14394;SDS011;7282;49.204;10.652;2023-02-01T05:10:41;6.80;;;6.13;;
14394;SDS011;7282;49.204;10.652;2023-02-01T05:13:08;7.73;;;6.77;;
14394;SDS011;7282;49.204;10.652;2023-02-01T05:15:53;6.93;;;6.23;;
14394;SDS011;7282;49.204;10.652;2023-02-01T05:18:20;7.70;;;6.57;;
14394;SDS011;7282;49.204;10.652;2023-02-01T05:20:46;6.67;;;5.63;;
14394;SDS011;7282;49.204;10.652;2023-02-01T05:23:13;6.97;;;5.93;;
14394;SDS011;7282;49.204;10.652;2023-02-01T05:25:40;6.77;;;5.93;;
14394;SDS011;7282;49.204;10.652;2023-02-01T05:28:07;6.63;;;6.03;;
14394;SDS011;7282;49.204;10.652;2023-02-01T05:30:33;6.47;;;5.47;;
14394;SDS011;7282;49.204;10.652;2023-02-01T05:33:01;7.60;;;6.40;;
14394;SDS011;7282;49.204;10.652;2023-02-01T05:35:28;7.13;;;5.90;;
14394;SDS011;7282;49.204;10.652;2023-02-01T05:37:55;6.77;;;6.17;;
14394;SDS011;7282;49.204;10.652;2023-02-01T05:40:21;7.40;;;6.23;;
14394;SDS011;7282;49.204;10.652;2023-02-01T05:42:48;7.07;;;6.30;;
14394;SDS011;7282;49.204;10.652;2023-02-01T05:45:15;8.37;;;6.10;;
14394;SDS011;7282;49.204;10.652;2023-02-01T05:47:42;7.53;;;6.63;;
14394;SDS011;7282;49.204;10.652;2023-02-01T05:50:08;7.27;;;6.27;;
14394;SDS011;7282;49.204;10.652;2023-02-01T05:52:35;6.33;;;5.73;;
14394;SDS011;7282;49.204;10.652;2023-02-01T05:55:02;8.87;;;6.90;;
14394;SDS011;7282;49.204;10.652;2023-02-01T05:57:29;7.43;;;6.70;;
14394;SDS011;7282;49.204;10.652;2023-02-01T05:59:56;7.73;;;6.70;;
14394;SDS011;7282;49.204;10.652;2023-02-01T06:02:23;8.80;;;6.40;;
14394;SDS011;7282;49.204;10.652;2023-02-01T06:04:50;7.20;;;6.30;;
14394;SDS011;7282;49.204;10.652;2023-02-01T06:07:17;7.30;;;6.10;;
14394;SDS011;7282;49.204;10.652;2023-02-01T06:09:44;7.60;;;6.27;;
14394;SDS011;7282;49.204;10.652;2023-02-01T06:12:10;8.10;;;6.63;;
14394;SDS011;7282;49.204;10.652;2023-02-01T06:14:38;8.40;;;7.03;;
14394;SDS011;7282;49.204;10.652;2023-02-01T06:17:04;8.97;;;6.83;;
14394;SDS011;7282;49.204;10.652;2023-02-01T06:19:32;8.10;;;6.50;;
14394;SDS011;7282;49.204;10.652;2023-02-01T06:21:58;7.27;;;6.30;;
14394;SDS011;7282;49.204;10.652;2023-02-01T06:24:25;7.90;;;6.80;;
14394;SDS011;7282;49.204;10.652;2023-02-01T06:26:57;9.77;;;6.67;;
14394;SDS011;7282;49.204;10.652;2023-02-01T06:29:20;9.57;;;6.70;;
14394;SDS011;7282;49.204;10.652;2023-02-01T06:31:52;7.50;;;6.23;;
14394;SDS011;7282;49.204;10.652;2023-02-01T06:34:16;7.33;;;6.63;;
14394;SDS011;7282;49.204;10.652;2023-02-01T06:36:43;8.23;;;6.53;;
14394;SDS011;7282;49.204;10.652;2023-02-01T06:39:10;8.90;;;6.80;;
14394;SDS011;7282;49.204;10.652;2023-02-01T06:41:39;10.30;;;7.33;;
14394;SDS011;7282;49.204;10.652;2023-02-01T06:44:05;10.23;;;7.40;;
14394;SDS011;7282;49.204;10.652;2023-02-01T06:46:32;8.20;;;7.27;;
14394;SDS011;7282;49.204;10.652;2023-02-01T06:48:59;10.77;;;8.33;;
14394;SDS011;7282;49.204;10.652;2023-02-01T06:51:26;11.30;;;7.90;;
14394;SDS011;7282;49.204;10.652;2023-02-01T06:53:53;11.33;;;8.50;;
14394;SDS011;7282;49.204;10.652;2023-02-01T06:56:20;11.47;;;8.40;;
14394;SDS011;7282;49.204;10.652;2023-02-01T06:58:47;13.80;;;8.40;;
14394;SDS011;7282;49.204;10.652;2023-02-01T07:01:14;9.07;;;7.97;;
14394;SDS011;7282;49.204;10.652;2023-02-01T07:03:41;10.10;;;8.00;;
14394;SDS011;7282;49.204;10.652;2023-02-01T07:06:08;10.27;;;7.70;;
14394;SDS011;7282;49.204;10.652;2023-02-01T07:08:36;10.03;;;6.43;;
14394;SDS011;7282;49.204;10.652;2023-02-01T07:11:03;9.77;;;7.07;;
14394;SDS011;7282;49.204;10.652;2023-02-01T07:13:30;8.83;;;7.23;;
14394;SDS011;7282;49.204;10.652;2023-02-01T07:15:58;9.20;;;7.60;;
14394;SDS011;7282;49.204;10.652;2023-02-01T07:18:26;10.60;;;8.47;;
14394;SDS011;7282;49.204;10.652;2023-02-01T07:20:52;9.87;;;8.17;;
14394;SDS011;7282;49.204;10.652;2023-02-01T07:23:19;10.60;;;7.83;;
14394;SDS011;7282;49.204;10.652;2023-02-01T07:25:46;11.07;;;8.00;;
14394;SDS011;7282;49.204;10.652;2023-02-01T07:28:13;10.40;;;7.83;;
14394;SDS011;7282;49.204;10.652;2023-02-01T07:30:40;9.70;;;7.27;;
14394;SDS011;7282;49.204;10.652;2023-02-01T07:33:07;9.43;;;7.77;;
14394;SDS011;7282;49.204;10.652;2023-02-01T07:35:34;9.50;;;7.70;;
14394;SDS011;7282;49.204;10.652;2023-02-01T07:38:01;8.13;;;6.70;;
14394;SDS011;7282;49.204;10.652;2023-02-01T07:40:27;8.47;;;6.27;;
14394;SDS011;7282;49.204;10.652;2023-02-01T07:42:57;7.23;;;5.67;;
14394;SDS011;7282;49.204;10.652;2023-02-01T07:45:23;7.10;;;6.00;;
14394;SDS011;7282;49.204;10.652;2023-02-01T07:47:51;7.03;;;5.60;;
14394;SDS011;7282;49.204;10.652;2023-02-01T07:50:18;7.93;;;6.50;;
14394;SDS011;7282;49.204;10.652;2023-02-01T07:52:45;8.10;;;6.47;;
14394;SDS011;7282;49.204;10.652;2023-02-01T07:55:11;9.07;;;6.50;;
14394;SDS011;7282;49.204;10.652;2023-02-01T07:57:38;8.23;;;6.13;;
14394;SDS011;7282;49.204;10.652;2023-02-01T08:00:05;8.83;;;6.47;;
14394;SDS011;7282;49.204;10.652;2023-02-01T08:02:49;7.47;;;5.40;;
14394;SDS011;7282;49.204;10.652;2023-02-01T08:05:16;7.90;;;5.97;;
14394;SDS011;7282;49.204;10.652;2023-02-01T08:07:43;6.93;;;5.53;;
14394;SDS011;7282;49.204;10.652;2023-02-01T08:10:10;9.07;;;5.67;;
14394;SDS011;7282;49.204;10.652;2023-02-01T08:12:37;7.83;;;5.00;;
14394;SDS011;7282;49.204;10.652;2023-02-01T08:15:04;7.30;;;5.10;;
14394;SDS011;7282;49.204;10.652;2023-02-01T08:17:31;7.60;;;5.63;;
14394;SDS011;7282;49.204;10.652;2023-02-01T08:19:58;6.07;;;5.30;;
14394;SDS011;7282;49.204;10.652;2023-02-01T08:22:25;8.07;;;6.10;;
14394;SDS011;7282;49.204;10.652;2023-02-01T08:24:51;8.77;;;7.00;;
14394;SDS011;7282;49.204;10.652;2023-02-01T08:27:20;8.87;;;7.37;;
14394;SDS011;7282;49.204;10.652;2023-02-01T08:29:47;8.70;;;6.90;;
14394;SDS011;7282;49.204;10.652;2023-02-01T08:32:13;8.70;;;6.57;;
14394;SDS011;7282;49.204;10.652;2023-02-01T08:34:40;10.70;;;6.83;;
14394;SDS011;7282;49.204;10.652;2023-02-01T08:37:07;11.77;;;7.50;;
14394;SDS011;7282;49.204;10.652;2023-02-01T08:39:33;11.07;;;7.90;;
14394;SDS011;7282;49.204;10.652;2023-02-01T08:42:00;12.77;;;7.90;;
14394;SDS011;7282;49.204;10.652;2023-02-01T08:44:45;11.37;;;6.67;;
14394;SDS011;7282;49.204;10.652;2023-02-01T08:47:13;10.83;;;7.60;;
14394;SDS011;7282;49.204;10.652;2023-02-01T08:49:39;11.77;;;7.50;;
14394;SDS011;7282;49.204;10.652;2023-02-01T08:52:06;11.60;;;7.00;;
14394;SDS011;7282;49.204;10.652;2023-02-01T08:54:33;9.27;;;7.00;;
14394;SDS011;7282;49.204;10.652;2023-02-01T08:56:59;9.67;;;7.57;;
14394;SDS011;7282;49.204;10.652;2023-02-01T08:59:26;11.73;;;6.83;;
14394;SDS011;7282;49.204;10.652;2023-02-01T09:01:53;8.37;;;6.93;;
14394;SDS011;7282;49.204;10.652;2023-02-01T09:04:20;13.60;;;6.87;;
14394;SDS011;7282;49.204;10.652;2023-02-01T09:06:47;9.60;;;6.07;;
14394;SDS011;7282;49.204;10.652;2023-02-01T09:09:13;11.30;;;6.70;;
14394;SDS011;7282;49.204;10.652;2023-02-01T09:11:40;8.97;;;6.00;;
14394;SDS011;7282;49.204;10.652;2023-02-01T09:14:07;7.50;;;5.87;;
14394;SDS011;7282;49.204;10.652;2023-02-01T09:16:33;10.00;;;5.87;;
14394;SDS011;7282;49.204;10.652;2023-02-01T09:19:00;7.93;;;5.43;;
14394;SDS011;7282;49.204;10.652;2023-02-01T09:21:27;6.93;;;5.30;;
14394;SDS011;7282;49.204;10.652;2023-02-01T09:23:54;7.80;;;5.40;;
14394;SDS011;7282;49.204;10.652;2023-02-01T09:26:20;8.20;;;5.60;;
14394;SDS011;7282;49.204;10.652;2023-02-01T09:28:47;8.20;;;5.23;;
14394;SDS011;7282;49.204;10.652;2023-02-01T09:31:14;9.47;;;4.87;;
14394;SDS011;7282;49.204;10.652;2023-02-01T09:33:40;8.27;;;4.57;;
14394;SDS011;7282;49.204;10.652;2023-02-01T09:36:07;10.60;;;5.50;;
14394;SDS011;7282;49.204;10.652;2023-02-01T09:38:34;10.00;;;4.73;;
14394;SDS011;7282;49.204;10.652;2023-02-01T09:41:01;7.13;;;4.97;;
14394;SDS011;7282;49.204;10.652;2023-02-01T09:43:46;9.77;;;5.77;;
14394;SDS011;7282;49.204;10.652;2023-02-01T09:46:24;9.10;;;4.97;;
14394;SDS011;7282;49.204;10.652;2023-02-01T09:48:58;8.00;;;5.03;;
14394;SDS011;7282;49.204;10.652;2023-02-01T09:51:25;7.33;;;5.33;;
14394;SDS011;7282;49.204;10.652;2023-02-01T09:53:59;9.57;;;5.20;;
14394;SDS011;7282;49.204;10.652;2023-02-01T09:56:33;9.43;;;5.60;;
14394;SDS011;7282;49.204;10.652;2023-02-01T09:59:00;10.90;;;5.37;;
14394;SDS011;7282;49.204;10.652;2023-02-01T10:01:24;12.63;;;5.40;;
14394;SDS011;7282;49.204;10.652;2023-02-01T10:03:51;9.97;;;5.97;;
14394;SDS011;7282;49.204;10.652;2023-02-01T10:17:04;8.00;;;5.73;;
14394;SDS011;7282;49.204;10.652;2023-02-01T10:19:45;8.80;;;5.43;;
14394;SDS011;7282;49.204;10.652;2023-02-01T10:22:11;8.97;;;5.57;;
14394;SDS011;7282;49.204;10.652;2023-02-01T10:24:42;8.80;;;5.27;;
14394;SDS011;7282;49.204;10.652;2023-02-01T10:27:12;10.60;;;5.40;;
14394;SDS011;7282;49.204;10.652;2023-02-01T10:29:39;7.47;;;5.20;;
14394;SDS011;7282;49.204;10.652;2023-02-01T10:32:15;9.47;;;5.30;;
14394;SDS011;7282;49.204;10.652;2023-02-01T10:34:38;6.67;;;5.40;;
14394;SDS011;7282;49.204;10.652;2023-02-01T10:37:11;7.90;;;5.00;;
14394;SDS011;7282;49.204;10.652;2023-02-01T10:39:36;8.33;;;4.67;;
14394;SDS011;7282;49.204;10.652;2023-02-01T10:42:03;11.30;;;4.97;;
14394;SDS011;7282;49.204;10.652;2023-02-01T10:44:30;9.53;;;5.33;;
14394;SDS011;7282;49.204;10.652;2023-02-01T10:46:58;9.13;;;5.50;;
14394;SDS011;7282;49.204;10.652;2023-02-01T10:52:10;10.27;;;5.23;;
14394;SDS011;7282;49.204;10.652;2023-02-01T10:54:36;9.10;;;5.10;;
14394;SDS011;7282;49.204;10.652;2023-02-01T10:57:19;12.60;;;5.90;;
14394;SDS011;7282;49.204;10.652;2023-02-01T10:59:35;10.03;;;6.27;;
14394;SDS011;7282;49.204;10.652;2023-02-01T11:02:19;12.70;;;6.87;;
14394;SDS011;7282;49.204;10.652;2023-02-01T11:04:40;12.30;;;7.07;;
14394;SDS011;7282;49.204;10.652;2023-02-01T11:07:23;12.67;;;7.60;;
14394;SDS011;7282;49.204;10.652;2023-02-01T11:09:51;15.33;;;7.53;;
14394;SDS011;7282;49.204;10.652;2023-02-01T11:12:25;18.20;;;8.07;;
14394;SDS011;7282;49.204;10.652;2023-02-01T11:14:48;16.00;;;7.60;;
14394;SDS011;7282;49.204;10.652;2023-02-01T11:17:17;13.10;;;8.23;;
14394;SDS011;7282;49.204;10.652;2023-02-01T11:19:56;13.40;;;8.03;;
14394;SDS011;7282;49.204;10.652;2023-02-01T11:22:16;9.90;;;7.30;;
14394;SDS011;7282;49.204;10.652;2023-02-01T11:24:44;16.10;;;7.47;;
14394;SDS011;7282;49.204;10.652;2023-02-01T11:27:16;15.10;;;8.97;;
14394;SDS011;7282;49.204;10.652;2023-02-01T11:29:43;14.37;;;7.90;;
14394;SDS011;7282;49.204;10.652;2023-02-01T11:32:12;11.47;;;7.30;;
14394;SDS011;7282;49.204;10.652;2023-02-01T11:34:43;11.70;;;6.60;;
14394;SDS011;7282;49.204;10.652;2023-02-01T11:37:31;14.40;;;7.20;;
14394;SDS011;7282;49.204;10.652;2023-02-01T11:39:55;13.50;;;6.20;;
14394;SDS011;7282;49.204;10.652;2023-02-01T11:42:22;6.77;;;4.83;;
14394;SDS011;7282;49.204;10.652;2023-02-01T11:44:49;7.57;;;4.80;;
14394;SDS011;7282;49.204;10.652;2023-02-01T11:49:48;14.57;;;6.40;;
14394;SDS011;7282;49.204;10.652;2023-02-01T11:52:18;10.57;;;6.43;;
14394;SDS011;7282;49.204;10.652;2023-02-01T11:54:58;11.93;;;6.33;;
14394;SDS011;7282;49.204;10.652;2023-02-01T12:02:38;11.73;;;7.07;;
14394;SDS011;7282;49.204;10.652;2023-02-01T12:05:17;12.17;;;6.10;;
14394;SDS011;7282;49.204;10.652;2023-02-01T12:18:12;11.23;;;4.23;;
14394;SDS011;7282;49.204;10.652;2023-02-01T12:20:47;8.67;;;4.10;;
14394;SDS011;7282;49.204;10.652;2023-02-01T12:23:18;8.00;;;4.03;;
14394;SDS011;7282;49.204;10.652;2023-02-01T12:31:17;7.07;;;3.67;;
14394;SDS011;7282;49.204;10.652;2023-02-01T12:36:40;8.50;;;3.30;;
14394;SDS011;7282;49.204;10.652;2023-02-01T12:41:53;9.90;;;3.90;;
14394;SDS011;7282;49.204;10.652;2023-02-01T12:46:51;9.00;;;3.87;;
14394;SDS011;7282;49.204;10.652;2023-02-01T12:52:09;8.60;;;3.60;;
14394;SDS011;7282;49.204;10.652;2023-02-01T12:54:34;7.87;;;4.00;;
14394;SDS011;7282;49.204;10.652;2023-02-01T12:57:01;7.07;;;3.60;;
14394;SDS011;7282;49.204;10.652;2023-02-01T12:59:31;8.97;;;3.63;;
14394;SDS011;7282;49.204;10.652;2023-02-01T13:01:59;8.80;;;3.93;;
14394;SDS011;7282;49.204;10.652;2023-02-01T13:04:28;10.13;;;3.70;;
14394;SDS011;7282;49.204;10.652;2023-02-01T13:07:11;9.60;;;3.90;;
14394;SDS011;7282;49.204;10.652;2023-02-01T13:09:40;8.07;;;4.30;;
14394;SDS011;7282;49.204;10.652;2023-02-01T13:12:12;10.50;;;3.60;;
14394;SDS011;7282;49.204;10.652;2023-02-01T13:14:44;6.93;;;3.40;;
14394;SDS011;7282;49.204;10.652;2023-02-01T13:17:14;8.80;;;3.97;;
14394;SDS011;7282;49.204;10.652;2023-02-01T13:19:42;10.00;;;4.77;;
14394;SDS011;7282;49.204;10.652;2023-02-01T13:22:11;13.83;;;4.97;;
14394;SDS011;7282;49.204;10.652;2023-02-01T13:27:23;8.53;;;3.80;;
14394;SDS011;7282;49.204;10.652;2023-02-01T13:30:06;10.60;;;4.17;;
14394;SDS011;7282;49.204;10.652;2023-02-01T13:32:37;8.53;;;4.03;;
14394;SDS011;7282;49.204;10.652;2023-02-01T13:43:06;9.07;;;3.10;;
14394;SDS011;7282;49.204;10.652;2023-02-01T13:45:34;8.90;;;3.53;;
14394;SDS011;7282;49.204;10.652;2023-02-01T13:48:03;11.10;;;4.00;;
14394;SDS011;7282;49.204;10.652;2023-02-01T13:50:36;6.23;;;3.50;;
14394;SDS011;7282;49.204;10.652;2023-02-01T13:53:14;15.30;;;5.33;;
14394;SDS011;7282;49.204;10.652;2023-02-01T13:55:36;11.67;;;4.97;;
14394;SDS011;7282;49.204;10.652;2023-02-01T13:58:05;9.80;;;4.33;;
14394;SDS011;7282;49.204;10.652;2023-02-01T14:00:36;10.67;;;4.30;;
14394;SDS011;7282;49.204;10.652;2023-02-01T14:13:22;10.37;;;4.00;;
14394;SDS011;7282;49.204;10.652;2023-02-01T14:15:53;10.33;;;4.50;;
14394;SDS011;7282;49.204;10.652;2023-02-01T14:21:10;8.93;;;4.10;;
14394;SDS011;7282;49.204;10.652;2023-02-01T14:23:25;10.37;;;4.23;;
14394;SDS011;7282;49.204;10.652;2023-02-01T14:26:03;11.73;;;4.20;;
14394;SDS011;7282;49.204;10.652;2023-02-01T14:28:30;8.33;;;4.10;;
14394;SDS011;7282;49.204;10.652;2023-02-01T14:30:57;10.00;;;3.90;;
14394;SDS011;7282;49.204;10.652;2023-02-01T14:33:26;9.83;;;4.80;;
14394;SDS011;7282;49.204;10.652;2023-02-01T14:36:00;7.77;;;3.93;;
14394;SDS011;7282;49.204;10.652;2023-02-01T14:38:25;9.13;;;3.73;;
14394;SDS011;7282;49.204;10.652;2023-02-01T14:40:52;7.07;;;3.80;;
14394;SDS011;7282;49.204;10.652;2023-02-01T14:43:46;8.27;;;3.77;;
14394;SDS011;7282;49.204;10.652;2023-02-01T14:45:48;7.90;;;3.70;;
14394;SDS011;7282;49.204;10.652;2023-02-01T14:50:46;7.07;;;3.37;;
14394;SDS011;7282;49.204;10.652;2023-02-01T14:55:50;11.10;;;4.40;;
14394;SDS011;7282;49.204;10.652;2023-02-01T14:58:27;9.27;;;3.77;;
14394;SDS011;7282;49.204;10.652;2023-02-01T15:00:53;7.67;;;3.90;;
14394;SDS011;7282;49.204;10.652;2023-02-01T15:03:25;9.47;;;3.83;;
14394;SDS011;7282;49.204;10.652;2023-02-01T15:05:58;6.27;;;3.97;;
14394;SDS011;7282;49.204;10.652;2023-02-01T15:08:35;8.17;;;3.93;;
14394;SDS011;7282;49.204;10.652;2023-02-01T15:11:01;7.30;;;3.93;;
14394;SDS011;7282;49.204;10.652;2023-02-01T15:13:29;11.13;;;4.07;;
14394;SDS011;7282;49.204;10.652;2023-02-01T15:16:02;9.30;;;3.87;;
14394;SDS011;7282;49.204;10.652;2023-02-01T15:18:29;7.87;;;4.10;;
14394;SDS011;7282;49.204;10.652;2023-02-01T15:20:57;10.60;;;3.53;;
14394;SDS011;7282;49.204;10.652;2023-02-01T15:23:24;10.87;;;3.83;;
14394;SDS011;7282;49.204;10.652;2023-02-01T15:25:51;8.53;;;3.20;;
14394;SDS011;7282;49.204;10.652;2023-02-01T15:28:17;11.13;;;4.27;;
14394;SDS011;7282;49.204;10.652;2023-02-01T15:30:54;9.03;;;3.87;;
14394;SDS011;7282;49.204;10.652;2023-02-01T15:33:21;8.67;;;3.50;;
14394;SDS011;7282;49.204;10.652;2023-02-01T15:35:51;10.17;;;3.50;;
14394;SDS011;7282;49.204;10.652;2023-02-01T15:43:22;8.80;;;3.67;;
14394;SDS011;7282;49.204;10.652;2023-02-01T15:45:48;12.23;;;4.27;;
14394;SDS011;7282;49.204;10.652;2023-02-01T15:48:20;11.10;;;3.87;;
14394;SDS011;7282;49.204;10.652;2023-02-01T15:50:46;12.80;;;4.40;;
14394;SDS011;7282;49.204;10.652;2023-02-01T15:53:17;9.73;;;3.67;;
14394;SDS011;7282;49.204;10.652;2023-02-01T15:55:44;8.27;;;4.10;;
14394;SDS011;7282;49.204;10.652;2023-02-01T15:58:19;10.93;;;4.23;;
14394;SDS011;7282;49.204;10.652;2023-02-01T16:00:51;11.00;;;3.87;;
14394;SDS011;7282;49.204;10.652;2023-02-01T16:03:37;9.53;;;3.60;;
14394;SDS011;7282;49.204;10.652;2023-02-01T16:05:54;12.37;;;3.87;;
14394;SDS011;7282;49.204;10.652;2023-02-01T16:08:22;8.80;;;4.40;;
14394;SDS011;7282;49.204;10.652;2023-02-01T16:10:51;8.70;;;4.27;;
14394;SDS011;7282;49.204;10.652;2023-02-01T16:13:18;10.23;;;4.30;;
14394;SDS011;7282;49.204;10.652;2023-02-01T16:15:46;9.87;;;3.70;;
14394;SDS011;7282;49.204;10.652;2023-02-01T16:18:13;11.57;;;3.73;;
14394;SDS011;7282;49.204;10.652;2023-02-01T16:20:41;9.00;;;4.03;;
14394;SDS011;7282;49.204;10.652;2023-02-01T16:23:08;8.03;;;4.40;;
14394;SDS011;7282;49.204;10.652;2023-02-01T16:25:36;10.00;;;4.50;;
14394;SDS011;7282;49.204;10.652;2023-02-01T16:28:03;13.63;;;4.17;;
14394;SDS011;7282;49.204;10.652;2023-02-01T16:30:31;9.10;;;4.20;;